Time;durP1;ratioP1;P1;durP2;ratioP2;P2;SDS_P1;SDS_P2;PMS_P1;PMS_P2;Temp;Humidity;BMP_temperature;BMP_pressure;BME280_temperature;BME280_humidity;BME280_pressure;Samples;Min_cycle;Max_cycle;Signal;HPM_P1;HPM_P2
2023/12/29 13:52:20;;;;;;;7.50;2.40;;;;;;;10.44;96.93;99701.52;217441;1282;96540;-91
2023/12/29 13:57:32;;;;;;;6.50;2.60;;;;;;;10.42;96.89;99711.35;214512;1290;96717;-89
2023/12/29 14:02:35;;;;;;;8.70;2.80;;;;;;;10.41;96.68;99710.95;214623;1287;139275;-87
2023/12/29 14:07:36;;;;;;;9.40;3.20;;;;;;;10.40;96.84;99706.77;213867;1288;138963;-87
2023/12/29 14:12:36;;;;;;;4.70;2.10;;;;;;;10.39;96.50;99695.55;213668;1287;140995;-88
2023/12/29 14:17:38;;;;;;;6.40;2.30;;;;;;;10.35;96.53;99691.30;214136;1288;140602;-88
2023/12/29 14:22:39;;;;;;;4.90;2.40;;;;;;;10.32;96.66;99695.39;214434;1287;140575;-88
2023/12/29 14:27:40;;;;;;;7.40;2.80;;;;;;;10.28;96.64;99695.55;214314;1287;138532;-87
2023/12/29 14:32:40;;;;;;;7.90;3.20;;;;;;;10.22;96.82;99701.59;213954;1287;140142;-87
2023/12/29 14:37:41;;;;;;;7.20;2.40;;;;;;;10.19;97.12;99706.54;214167;1287;138200;-87
2023/12/29 14:42:41;;;;;;;7.80;3.20;;;;;;;10.17;96.90;99701.83;213464;1287;139231;-85
2023/12/29 14:47:42;;;;;;;9.00;3.90;;;;;;;10.15;96.96;99701.73;214477;1288;138448;-86
2023/12/29 14:52:42;;;;;;;12.40;2.90;;;;;;;10.12;97.03;99702.98;214540;1287;140543;-88
2023/12/29 14:57:44;;;;;;;9.70;2.90;;;;;;;10.10;96.23;99692.23;215269;1287;139133;-85
2023/12/29 15:02:44;;;;;;;6.00;2.70;;;;;;;10.11;96.42;99690.02;214752;1288;139956;-87
2023/12/29 15:07:45;;;;;;;8.90;3.10;;;;;;;10.09;97.33;99684.54;215346;1287;139096;-86
2023/12/29 15:12:45;;;;;;;7.90;3.10;;;;;;;10.07;96.69;99679.04;216133;1287;139907;-87
2023/12/29 15:17:45;;;;;;;9.80;3.40;;;;;;;10.07;96.76;99679.34;215432;1287;138996;-85
2023/12/29 15:22:46;;;;;;;7.90;3.10;;;;;;;10.08;96.81;99687.04;215383;1287;139644;-87
2023/12/29 15:27:46;;;;;;;6.00;2.00;;;;;;;10.07;96.59;99680.52;215735;1286;139501;-87
2023/12/29 15:32:47;;;;;;;6.80;2.40;;;;;;;10.09;96.46;99671.56;215194;1287;139656;-86
2023/12/29 15:37:47;;;;;;;8.10;3.20;;;;;;;10.10;96.23;99671.19;215611;1287;139127;-87
2023/12/29 15:42:49;;;;;;;8.20;3.00;;;;;;;10.09;97.06;99669.69;215310;1287;139424;-86
2023/12/29 15:47:49;;;;;;;11.60;4.10;;;;;;;10.08;97.05;99671.34;215498;1287;139021;-88
2023/12/29 15:52:50;;;;;;;15.90;5.00;;;;;;;10.04;97.20;99665.73;214958;1287;139542;-89
2023/12/29 15:57:50;;;;;;;17.00;4.40;;;;;;;10.02;97.32;99666.19;215349;1287;138994;-90
2023/12/29 16:02:51;;;;;;;13.70;4.50;;;;;;;9.99;97.88;99655.75;214933;1287;139503;-91
2023/12/29 16:07:51;;;;;;;14.70;5.70;;;;;;;9.93;98.13;99652.98;215487;1287;139057;-89
2023/12/29 16:12:52;;;;;;;11.00;4.60;;;;;;;9.87;98.17;99644.96;215243;1287;139236;-90
2023/12/29 16:17:52;;;;;;;15.70;6.10;;;;;;;9.81;98.40;99652.82;215737;1287;139285;-90
2023/12/29 16:23:15;;;;;;;;;;;;;;;;;;;;;
2023/12/29 16:28:16;;;;;;;17.00;6.00;;;;;;;9.70;99.18;99649.89;215910;1287;139061;-91
2023/12/29 16:33:17;;;;;;;12.00;5.50;;;;;;;9.65;99.66;99654.66;215221;1288;139670;-93
2023/12/29 16:38:41;;;;;;;12.60;5.10;;;;;;;9.59;99.73;99651.43;215925;1287;138779;-91
2023/12/29 16:44:11;;;;;;;20.50;7.70;;;;;;;9.56;99.95;99646.25;215256;1287;139474;-91
2023/12/29 16:49:17;;;;;;;12.80;5.60;;;;;;;9.54;100.00;99639.72;217274;1287;139325;-91
2023/12/29 16:54:17;;;;;;;28.60;9.10;;;;;;;9.53;100.00;99641.92;217628;1287;139856;-89
2023/12/29 16:59:18;;;;;;;18.20;6.00;;;;;;;9.50;100.00;99628.97;216038;1287;139629;-89
2023/12/29 17:04:18;;;;;;;17.90;6.20;;;;;;;9.49;100.00;99628.56;215412;1287;139863;-93
2023/12/29 17:09:19;;;;;;;32.70;11.40;;;;;;;9.46;100.00;99631.86;215456;1287;96615;-91
2023/12/29 17:14:20;;;;;;;13.70;5.80;;;;;;;9.44;100.00;99626.67;214769;1287;139305;-88
2023/12/29 17:19:21;;;;;;;27.10;9.30;;;;;;;9.40;100.00;99626.98;215159;1287;139180;-86
2023/12/29 17:24:22;;;;;;;12.70;5.10;;;;;;;9.38;100.00;99623.29;215359;1287;140035;-89
2023/12/29 17:29:26;;;;;;;13.20;5.00;;;;;;;9.38;100.00;99624.85;215274;1287;139046;-88
2023/12/29 17:34:26;;;;;;;15.70;6.70;;;;;;;9.34;100.00;99620.20;214837;1287;139231;-91
2023/12/29 17:39:26;;;;;;;14.00;5.80;;;;;;;9.34;100.00;99619.58;215569;1290;96600;-89
2023/12/29 17:44:27;;;;;;;17.00;6.70;;;;;;;9.31;100.00;99627.81;214682;1287;139533;-88
2023/12/29 17:49:29;;;;;;;16.10;7.20;;;;;;;9.27;100.00;99624.83;215306;1287;138696;-87
2023/12/29 17:54:29;;;;;;;15.50;6.80;;;;;;;9.23;100.00;99629.58;214923;1287;139773;-87
2023/12/29 17:59:30;;;;;;;15.50;6.80;;;;;;;9.19;100.00;99630.83;215248;1287;138567;-89
2023/12/29 18:04:30;;;;;;;16.10;6.80;;;;;;;9.15;100.00;99630.42;214851;1287;140244;-90
2023/12/29 18:09:31;;;;;;;14.30;6.40;;;;;;;9.12;100.00;99625.78;215414;1290;96642;-90
2023/12/29 18:14:38;;;;;;;14.20;6.30;;;;;;;9.11;100.00;99624.84;214489;1288;140099;-90
2023/12/29 18:19:39;;;;;;;15.30;5.80;;;;;;;9.11;100.00;99620.84;214985;1287;138909;-89
2023/12/29 18:24:40;;;;;;;11.80;5.30;;;;;;;9.14;100.00;99635.11;214778;1287;139314;-87
2023/12/29 18:29:41;;;;;;;16.20;5.80;;;;;;;9.14;100.00;99629.48;215227;1287;138382;-90
2023/12/29 18:34:42;;;;;;;14.70;5.50;;;;;;;9.12;100.00;99629.48;215214;1287;139119;-91
2023/12/29 18:39:44;;;;;;;12.40;5.60;;;;;;;9.10;100.00;99630.32;215348;1287;138750;-89
2023/12/29 18:44:45;;;;;;;13.30;5.20;;;;;;;9.10;100.00;99631.97;214918;1287;139587;-91
2023/12/29 18:49:46;;;;;;;14.60;5.60;;;;;;;9.06;100.00;99637.28;215028;1287;138741;-89
2023/12/29 18:54:49;;;;;;;10.90;5.50;;;;;;;9.03;100.00;99636.33;215304;1287;138869;-91
2023/12/29 18:59:50;;;;;;;15.60;5.60;;;;;;;9.00;100.00;99640.55;214527;1287;139297;-91
2023/12/29 19:04:50;;;;;;;14.60;6.00;;;;;;;8.95;100.00;99642.95;215068;1287;138585;-92
2023/12/29 19:09:50;;;;;;;14.60;4.80;;;;;;;8.95;100.00;99658.48;214931;1287;140089;-91
2023/12/29 19:14:52;;;;;;;16.70;7.10;;;;;;;8.93;100.00;99666.63;216146;1288;97021;-90
2023/12/29 19:19:52;;;;;;;20.50;9.80;;;;;;;8.97;100.00;99674.25;214508;1287;139532;-91
2023/12/29 19:24:53;;;;;;;12.60;5.30;;;;;;;9.01;100.00;99672.47;215077;1287;138758;-90
2023/12/29 19:29:53;;;;;;;11.20;4.30;;;;;;;9.05;100.00;99668.73;214720;1287;165469;-87
2023/12/29 19:34:54;;;;;;;7.50;2.90;;;;;;;9.11;100.00;99671.65;215201;1288;140269;-92
2023/12/29 19:39:54;;;;;;;9.70;3.40;;;;;;;9.18;100.00;99667.36;214838;1287;139779;-90
2023/12/29 19:44:55;;;;;;;6.00;2.80;;;;;;;9.23;100.00;99667.23;215454;1287;96724;-88
2023/12/29 19:49:55;;;;;;;5.80;2.10;;;;;;;9.29;100.00;99669.77;214655;1288;139970;-85
2023/12/29 19:54:56;;;;;;;5.80;2.60;;;;;;;9.36;100.00;99663.98;215102;1288;139055;-88
2023/12/29 19:59:57;;;;;;;9.60;3.10;;;;;;;9.44;100.00;99665.83;214604;1287;139867;-87
2023/12/29 20:04:58;;;;;;;8.10;2.60;;;;;;;9.52;100.00;99663.73;215312;1286;139143;-87
2023/12/29 20:09:58;;;;;;;7.90;3.30;;;;;;;9.56;100.00;99666.49;214527;1288;139993;-88
2023/12/29 20:14:58;;;;;;;9.20;3.20;;;;;;;9.60;100.00;99664.39;215061;1292;96818;-89
2023/12/29 20:20:00;;;;;;;5.80;2.40;;;;;;;9.62;100.00;99666.51;214822;1287;142029;-89
2023/12/29 20:25:00;;;;;;;9.60;3.40;;;;;;;9.65;100.00;99670.05;215141;1287;139296;-90
2023/12/29 20:30:04;;;;;;;22.50;11.20;;;;;;;9.70;100.00;99673.36;214650;1287;139885;-91
2023/12/29 20:35:04;;;;;;;21.90;11.80;;;;;;;9.75;100.00;99674.70;215107;1288;139032;-89
2023/12/29 20:40:07;;;;;;;10.90;3.80;;;;;;;9.80;100.00;99669.86;214702;1288;140234;-89
2023/12/29 20:45:08;;;;;;;7.70;2.80;;;;;;;9.85;100.00;99666.55;215572;1287;96492;-87
2023/12/29 20:50:09;;;;;;;8.60;3.00;;;;;;;9.88;100.00;99663.89;215034;1287;139506;-87
2023/12/29 20:55:09;;;;;;;6.50;2.70;;;;;;;9.91;100.00;99664.85;215568;1287;139094;-91
2023/12/29 21:00:10;;;;;;;8.20;2.60;;;;;;;9.93;100.00;99661.14;214680;1288;139909;-90
2023/12/29 21:05:12;;;;;;;6.20;2.80;;;;;;;9.96;100.00;99658.02;215161;1290;139767;-89
2023/12/29 21:10:12;;;;;;;5.90;2.40;;;;;;;9.98;100.00;99653.77;214649;1290;140149;-90
2023/12/29 21:15:13;;;;;;;6.70;2.60;;;;;;;10.01;100.00;99641.06;215083;1287;96768;-90
2023/12/29 21:20:14;;;;;;;6.50;2.10;;;;;;;10.03;100.00;99647.20;214684;1288;139446;-88
2023/12/29 21:25:14;;;;;;;11.20;3.70;;;;;;;10.05;100.00;99638.67;214920;1291;139083;-87
2023/12/29 21:30:16;;;;;;;7.60;2.90;;;;;;;10.07;100.00;99644.16;214801;1289;140155;-91
2023/12/29 21:35:17;;;;;;;8.00;2.30;;;;;;;10.04;100.00;99646.27;214918;1287;139079;-92
2023/12/29 21:40:19;;;;;;;6.50;3.30;;;;;;;10.01;100.00;99649.38;214800;1292;140016;-90
2023/12/29 21:45:20;;;;;;;6.70;2.90;;;;;;;10.00;100.00;99651.98;215066;1287;246513;-88
2023/12/29 21:50:21;;;;;;;6.40;2.60;;;;;;;9.99;100.00;99650.73;214515;1288;139459;-91
2023/12/29 21:55:22;;;;;;;5.50;2.70;;;;;;;10.00;100.00;99644.91;215406;1286;138939;-91
2023/12/29 22:00:24;;;;;;;6.70;2.00;;;;;;;10.01;100.00;99641.14;215053;1288;140050;-92
2023/12/29 22:05:24;;;;;;;4.90;2.00;;;;;;;10.03;100.00;99647.81;215622;1290;139085;-87
2023/12/29 22:10:25;;;;;;;4.70;2.00;;;;;;;10.06;100.00;99642.82;215063;1286;140025;-91
2023/12/29 22:15:25;;;;;;;7.40;2.80;;;;;;;10.07;100.00;99646.75;215743;1285;95276;-91
2023/12/29 22:20:26;;;;;;;6.00;2.80;;;;;;;10.06;100.00;99648.55;215081;1285;139184;-89
2023/12/29 22:25:27;;;;;;;4.50;2.00;;;;;;;10.05;100.00;99643.37;217996;1287;138943;-89
2023/12/29 22:30:27;;;;;;;4.00;1.90;;;;;;;10.04;100.00;99639.44;218087;1288;139658;-89
2023/12/29 22:35:28;;;;;;;4.70;1.70;;;;;;;10.01;100.00;99633.60;216105;1285;139082;-90
2023/12/29 22:40:32;;;;;;;3.80;1.40;;;;;;;9.99;100.00;99631.48;214811;1285;139832;-91
2023/12/29 22:45:34;;;;;;;2.40;1.10;;;;;;;9.94;100.00;99625.73;214937;1289;97224;-91
2023/12/29 22:50:34;;;;;;;4.40;1.30;;;;;;;9.89;100.00;99620.48;214476;1285;139519;-90
2023/12/29 22:55:35;;;;;;;3.90;1.20;;;;;;;9.82;100.00;99619.30;214602;1288;138667;-91
2023/12/29 23:00:36;;;;;;;3.20;1.30;;;;;;;9.73;100.00;99609.08;213970;1285;139479;-90
2023/12/29 23:05:36;;;;;;;4.20;1.20;;;;;;;9.65;100.00;99597.05;214652;1289;138820;-91
2023/12/29 23:10:37;;;;;;;2.40;0.80;;;;;;;9.56;100.00;99588.48;213885;1291;139368;-90
2023/12/29 23:15:37;;;;;;;3.10;1.30;;;;;;;9.47;100.00;99586.27;214753;1289;96596;-91
2023/12/29 23:20:38;;;;;;;3.70;1.00;;;;;;;9.39;100.00;99581.46;214017;1290;139309;-92
2023/12/29 23:25:39;;;;;;;4.20;1.40;;;;;;;9.32;100.00;99569.05;214920;1289;139212;-88
2023/12/29 23:30:39;;;;;;;5.50;1.40;;;;;;;9.28;100.00;99565.28;215250;1285;139346;-92
2023/12/29 23:35:39;;;;;;;7.20;2.60;;;;;;;9.24;100.00;99558.45;215892;1285;138889;-90
2023/12/29 23:40:40;;;;;;;4.30;1.70;;;;;;;9.20;100.00;99552.48;215229;1290;139085;-91
2023/12/29 23:45:41;;;;;;;5.40;1.70;;;;;;;9.16;100.00;99557.17;216021;1285;96717;-91
2023/12/29 23:50:41;;;;;;;2.10;1.20;;;;;;;9.13;100.00;99542.97;215167;1285;138979;-89
2023/12/29 23:55:42;;;;;;;3.60;1.50;;;;;;;9.09;100.00;99543.04;215943;1286;138727;-90
